createdAt,value
2019-02-05T00:01:52.357Z,6.67
2019-02-05T00:04:23.174Z,10.40
2019-02-05T00:06:52.986Z,5.40
2019-02-05T00:09:22.990Z,5.35
2019-02-05T00:11:52.669Z,6.25
2019-02-05T00:14:22.723Z,5.00
2019-02-05T00:16:52.385Z,4.85
2019-02-05T00:19:22.070Z,5.10
2019-02-05T00:21:51.878Z,5.45
2019-02-05T00:24:21.563Z,4.30
2019-02-05T00:26:51.272Z,4.57
2019-02-05T00:29:21.330Z,5.77
2019-02-05T00:31:51.242Z,5.17
2019-02-05T00:34:21.894Z,5.63
2019-02-05T00:36:51.566Z,5.43
2019-02-05T00:39:21.546Z,5.27
2019-02-05T00:41:51.322Z,5.10
2019-02-05T00:44:21.081Z,5.40
2019-02-05T00:46:51.060Z,5.90
2019-02-05T00:49:21.100Z,6.22
2019-02-05T00:51:50.845Z,3.93
2019-02-05T00:54:20.526Z,3.93
2019-02-05T00:56:50.710Z,5.43
2019-02-05T00:59:20.725Z,7.50
2019-02-05T01:01:50.392Z,4.47
2019-02-05T01:04:20.146Z,5.30
2019-02-05T01:06:49.816Z,5.72
2019-02-05T01:09:19.500Z,4.87
2019-02-05T01:11:49.705Z,7.40
2019-02-05T01:14:19.402Z,5.13
2019-02-05T01:16:49.078Z,5.60
2019-02-05T01:19:18.999Z,6.80
2019-02-05T01:21:48.646Z,6.43
2019-02-05T01:24:18.631Z,6.40
2019-02-05T01:26:48.645Z,5.13
2019-02-05T01:29:18.324Z,5.43
2019-02-05T01:31:48.061Z,6.63
2019-02-05T01:34:18.079Z,6.33
2019-02-05T01:36:47.741Z,6.40
2019-02-05T01:39:17.797Z,8.07
2019-02-05T01:41:47.718Z,7.30
2019-02-05T01:44:18.453Z,5.12
2019-02-05T01:46:48.112Z,4.42
2019-02-05T01:49:17.888Z,3.20
2019-02-05T01:51:47.562Z,4.97
2019-02-05T01:54:17.247Z,4.37
2019-02-05T01:56:46.905Z,3.63
2019-02-05T01:59:16.662Z,3.87
2019-02-05T02:01:46.686Z,3.20
2019-02-05T02:04:16.359Z,4.87
2019-02-05T02:06:46.101Z,5.83
2019-02-05T02:09:15.775Z,4.50
2019-02-05T02:11:45.523Z,3.83
2019-02-05T02:14:15.199Z,5.53
2019-02-05T02:16:44.857Z,3.50
2019-02-05T02:19:14.536Z,4.30
2019-02-05T02:21:44.777Z,3.37
2019-02-05T02:24:14.544Z,5.53
2019-02-05T02:26:51.778Z,4.60
2019-02-05T02:29:15.702Z,4.78
2019-02-05T02:31:45.540Z,2.97
2019-02-05T02:34:15.483Z,2.58
2019-02-05T02:36:45.426Z,3.70
2019-02-05T02:39:15.523Z,3.60
2019-02-05T02:41:45.271Z,4.53
2019-02-05T02:44:14.939Z,6.10
2019-02-05T02:46:44.601Z,5.15
2019-02-05T02:49:14.250Z,2.87
2019-02-05T02:51:43.914Z,4.60
2019-02-05T02:54:13.580Z,5.33
2019-02-05T02:56:43.234Z,3.83
2019-02-05T02:59:12.900Z,4.23
2019-02-05T03:01:42.551Z,5.67
2019-02-05T03:04:12.227Z,3.60
2019-02-05T03:06:42.160Z,4.85
2019-02-05T03:09:12.481Z,7.27
2019-02-05T03:11:42.234Z,6.40
2019-02-05T03:14:11.872Z,5.17
2019-02-05T03:16:41.592Z,3.58
2019-02-05T03:19:11.253Z,3.60
2019-02-05T03:21:41.509Z,5.63
2019-02-05T03:24:11.179Z,5.80
2019-02-05T03:26:41.399Z,2.95
2019-02-05T03:29:11.144Z,4.10
2019-02-05T03:31:40.801Z,8.98
2019-02-05T03:34:10.538Z,4.25
2019-02-05T03:36:40.463Z,3.53
2019-02-05T03:39:10.417Z,3.17
2019-02-05T03:41:40.139Z,4.53
2019-02-05T03:44:10.129Z,3.35
2019-02-05T03:46:41.108Z,7.70
2019-02-05T03:49:11.013Z,4.37
2019-02-05T03:52:18.546Z,3.20
2019-02-05T03:55:26.733Z,3.00
2019-02-05T03:58:35.316Z,4.87
2019-02-05T04:01:43.409Z,4.70
2019-02-05T04:04:39.466Z,5.17
2019-02-05T04:07:45.313Z,5.37
2019-02-05T04:11:01.450Z,6.07
2019-02-05T04:14:11.387Z,7.37
2019-02-05T04:17:21.258Z,8.33
2019-02-05T04:20:04.989Z,5.70
2019-02-05T04:23:10.986Z,7.30
2019-02-05T04:26:08.763Z,5.87
2019-02-05T04:29:30.182Z,6.80
2019-02-05T04:32:15.990Z,7.70
2019-02-05T04:35:15.176Z,8.63
2019-02-05T04:38:27.863Z,6.78
2019-02-05T04:41:05.365Z,8.43
2019-02-05T04:44:16.405Z,6.07
2019-02-05T04:47:26.371Z,5.97
2019-02-05T04:50:47.765Z,9.85
2019-02-05T04:53:45.668Z,9.60
2019-02-05T04:57:11.926Z,7.47
2019-02-05T04:59:55.980Z,7.05
2019-02-05T05:03:03.516Z,8.73
2019-02-05T05:06:21.499Z,7.33
2019-02-05T05:09:05.607Z,9.13
2019-02-05T05:11:35.609Z,10.93
2019-02-05T05:14:06.269Z,8.70
2019-02-05T05:16:36.270Z,6.72
2019-02-05T05:19:06.173Z,7.23
2019-02-05T05:21:36.593Z,8.03
2019-02-05T05:24:06.330Z,7.67
2019-02-05T05:26:36.075Z,11.03
2019-02-05T05:29:06.373Z,14.30
2019-02-05T05:31:36.285Z,6.77
2019-02-05T05:34:06.018Z,8.00
2019-02-05T05:36:35.768Z,8.55
2019-02-05T05:39:07.881Z,7.47
2019-02-05T05:41:37.556Z,7.12
2019-02-05T05:44:09.472Z,8.95
2019-02-05T05:46:38.574Z,7.00
2019-02-05T05:49:08.244Z,5.97
2019-02-05T05:51:37.905Z,7.63
2019-02-05T05:54:07.855Z,6.03
2019-02-05T05:56:37.515Z,8.95
2019-02-05T05:59:08.147Z,7.35
2019-02-05T06:01:37.812Z,6.80
2019-02-05T06:04:07.714Z,7.23
2019-02-05T06:06:37.382Z,7.72
2019-02-05T06:09:08.987Z,8.83
2019-02-05T06:11:38.641Z,8.07
2019-02-05T06:14:08.291Z,6.30
2019-02-05T06:16:38.028Z,8.08
2019-02-05T06:19:07.790Z,7.13
2019-02-05T06:21:37.534Z,6.13
2019-02-05T06:24:07.368Z,6.63
2019-02-05T06:26:37.106Z,8.33
2019-02-05T06:29:07.232Z,7.13
2019-02-05T06:31:37.247Z,8.20
2019-02-05T06:34:06.980Z,8.33
2019-02-05T06:36:36.653Z,8.38
2019-02-05T06:39:08.866Z,5.90
2019-02-05T06:41:38.967Z,7.23
2019-02-05T06:44:08.774Z,5.65
2019-02-05T06:46:38.503Z,6.65
2019-02-05T06:49:08.167Z,7.23
2019-02-05T06:51:37.838Z,8.87
2019-02-05T06:54:07.819Z,6.22
2019-02-05T06:56:37.498Z,7.03
2019-02-05T06:59:07.238Z,8.97
2019-02-05T07:01:36.908Z,7.20
2019-02-05T07:04:07.194Z,6.90
2019-02-05T07:06:36.869Z,9.27
2019-02-05T07:09:10.186Z,9.90
2019-02-05T07:11:39.915Z,6.83
2019-02-05T07:14:09.724Z,8.33
2019-02-05T07:16:39.408Z,8.90
2019-02-05T07:19:09.060Z,14.20
2019-02-05T07:21:38.726Z,8.90
2019-02-05T07:24:08.466Z,10.90
2019-02-05T07:26:38.791Z,6.75
2019-02-05T07:29:08.593Z,7.77
2019-02-05T07:31:38.335Z,7.47
2019-02-05T07:34:08.136Z,9.85
2019-02-05T07:36:39.378Z,11.73
2019-02-05T07:39:09.902Z,6.85
2019-02-05T07:41:39.915Z,7.27
2019-02-05T07:44:09.643Z,7.33
2019-02-05T07:46:39.669Z,10.90
2019-02-05T07:49:10.291Z,7.80
2019-02-05T07:51:39.963Z,7.67
2019-02-05T07:54:09.699Z,6.67
2019-02-05T07:56:39.541Z,6.50
2019-02-05T07:59:10.588Z,6.60
2019-02-05T08:01:40.388Z,10.17
2019-02-05T08:04:10.050Z,9.93
2019-02-05T08:06:39.723Z,9.73
2019-02-05T08:09:11.094Z,6.77
2019-02-05T08:11:41.602Z,7.37
2019-02-05T08:14:11.592Z,6.95
2019-02-05T08:16:42.314Z,8.45
2019-02-05T08:19:11.969Z,8.53
2019-02-05T08:21:41.633Z,7.60
2019-02-05T08:24:11.649Z,10.40
2019-02-05T08:26:41.428Z,9.37
2019-02-05T08:29:21.293Z,7.70
2019-02-05T08:31:43.970Z,7.40
2019-02-05T08:34:13.706Z,5.63
2019-02-05T08:36:43.373Z,6.93
2019-02-05T08:39:13.029Z,7.07
2019-02-05T08:41:42.716Z,5.83
2019-02-05T08:44:12.723Z,5.80
2019-02-05T08:46:42.387Z,4.70
2019-02-05T08:49:12.562Z,6.47
2019-02-05T08:51:42.269Z,5.72
2019-02-05T08:54:11.927Z,6.63
2019-02-05T08:56:41.603Z,8.33
2019-02-05T08:59:11.659Z,8.93
2019-02-05T09:01:41.507Z,7.63
2019-02-05T09:04:11.318Z,5.43
2019-02-05T09:06:41.126Z,6.10
2019-02-05T09:09:11.215Z,6.10
2019-02-05T09:11:41.301Z,7.27
2019-02-05T09:14:12.993Z,6.70
2019-02-05T09:16:42.593Z,7.45
2019-02-05T09:19:12.246Z,6.50
2019-02-05T09:21:41.999Z,7.87
2019-02-05T09:24:11.662Z,9.30
2019-02-05T09:26:41.324Z,8.65
2019-02-05T09:29:10.967Z,9.37
2019-02-05T09:31:41.084Z,7.70
2019-02-05T09:34:10.732Z,6.70
2019-02-05T09:36:40.400Z,7.63
2019-02-05T09:39:10.196Z,8.20
2019-02-05T09:41:39.974Z,16.20
2019-02-05T09:44:09.732Z,7.25
2019-02-05T09:46:39.402Z,7.80
2019-02-05T09:49:09.438Z,8.27
2019-02-05T09:51:39.433Z,9.17
2019-02-05T09:54:09.175Z,6.87
2019-02-05T09:56:39.064Z,8.38
2019-02-05T09:59:09.277Z,7.77
2019-02-05T10:01:39.015Z,7.23
2019-02-05T10:04:09.305Z,8.08
2019-02-05T10:06:39.039Z,10.00
2019-02-05T10:09:09.460Z,8.80
2019-02-05T10:11:39.450Z,9.65
2019-02-05T10:14:09.115Z,11.83
2019-02-05T10:16:38.773Z,9.48
2019-02-05T10:19:10.011Z,9.17
2019-02-05T10:21:39.745Z,8.03
2019-02-05T10:24:09.475Z,9.10
2019-02-05T10:26:39.137Z,8.13
2019-02-05T10:29:08.804Z,8.60
2019-02-05T10:31:38.757Z,8.37
2019-02-05T10:34:08.501Z,7.90
2019-02-05T10:36:38.144Z,10.32
2019-02-05T10:39:10.401Z,9.40
2019-02-05T10:41:40.614Z,11.47
2019-02-05T10:44:10.670Z,9.00
2019-02-05T10:46:40.399Z,8.53
2019-02-05T10:49:10.148Z,8.07
2019-02-05T10:51:40.113Z,10.03
2019-02-05T10:54:09.781Z,10.60
2019-02-05T10:56:39.695Z,9.93
2019-02-05T10:59:09.369Z,10.37
2019-02-05T11:01:39.096Z,7.80
2019-02-05T11:04:08.860Z,10.13
2019-02-05T11:06:38.693Z,11.95
2019-02-05T11:09:10.778Z,9.90
2019-02-05T11:11:40.853Z,12.57
2019-02-05T11:14:10.601Z,10.97
2019-02-05T11:16:40.261Z,11.77
2019-02-05T11:19:10.018Z,10.93
2019-02-05T11:21:39.853Z,11.17
2019-02-05T11:24:09.537Z,10.13
2019-02-05T11:26:39.525Z,11.03
2019-02-05T11:29:09.533Z,11.33
2019-02-05T11:31:39.443Z,9.58
2019-02-05T11:34:09.109Z,8.83
2019-02-05T11:36:39.210Z,11.13
2019-02-05T11:39:15.489Z,10.97
2019-02-05T11:41:45.130Z,10.93
2019-02-05T11:44:15.116Z,12.27
2019-02-05T11:46:44.764Z,11.93
2019-02-05T11:49:14.498Z,11.93
2019-02-05T11:51:44.324Z,9.33
2019-02-05T11:54:13.990Z,10.67
2019-02-05T11:56:43.712Z,13.45
2019-02-05T11:59:13.383Z,12.43
2019-02-05T12:01:43.120Z,13.67
2019-02-05T12:04:12.931Z,12.33
2019-02-05T12:06:42.589Z,14.85
2019-02-05T12:09:24.470Z,13.63
2019-02-05T12:11:54.124Z,13.95
2019-02-05T12:14:23.782Z,14.47
2019-02-05T12:16:53.857Z,13.80
2019-02-05T12:19:23.594Z,14.03
2019-02-05T12:21:53.526Z,15.20
2019-02-05T12:24:23.281Z,16.47
2019-02-05T12:26:52.939Z,14.43
2019-02-05T12:29:22.607Z,16.27
2019-02-05T12:31:52.327Z,14.93
2019-02-05T12:34:21.996Z,14.13
2019-02-05T12:36:51.654Z,14.83
2019-02-05T12:39:21.578Z,14.85
2019-02-05T12:41:51.327Z,14.00
2019-02-05T12:44:20.984Z,14.27
2019-02-05T12:46:50.706Z,13.40
2019-02-05T12:49:20.367Z,16.43
2019-02-05T12:51:50.124Z,16.63
2019-02-05T12:54:19.767Z,13.30
2019-02-05T12:56:49.550Z,15.13
2019-02-05T12:59:19.570Z,14.50
2019-02-05T13:01:49.211Z,15.40
2019-02-05T13:04:19.376Z,16.67
2019-02-05T13:06:49.271Z,14.80
2019-02-05T13:09:19.086Z,15.55
2019-02-05T13:11:48.915Z,16.37
2019-02-05T13:14:18.758Z,16.00
2019-02-05T13:16:48.403Z,16.47
2019-02-05T13:19:18.410Z,16.23
2019-02-05T13:21:48.447Z,15.83
2019-02-05T13:24:18.189Z,17.15
2019-02-05T13:26:47.841Z,15.08
2019-02-05T13:29:17.514Z,16.23
2019-02-05T13:31:47.410Z,18.53
2019-02-05T13:34:17.073Z,17.40
2019-02-05T13:36:46.928Z,16.83
2019-02-05T13:39:16.594Z,16.93
2019-02-05T13:41:46.448Z,17.10
2019-02-05T13:44:16.185Z,18.77
2019-02-05T13:46:45.858Z,17.45
2019-02-05T13:49:15.587Z,17.57
2019-02-05T13:51:45.247Z,17.30
2019-02-05T13:54:15.258Z,15.37
2019-02-05T13:56:44.984Z,14.95
2019-02-05T13:59:14.660Z,22.17
2019-02-05T14:01:44.792Z,16.87
2019-02-05T14:04:14.853Z,16.87
2019-02-05T14:06:44.509Z,16.23
2019-02-05T14:09:14.502Z,17.57
2019-02-05T14:11:44.226Z,18.87
2019-02-05T14:14:13.900Z,18.30
2019-02-05T14:16:43.696Z,17.85
2019-02-05T14:19:13.979Z,16.63
2019-02-05T14:21:43.639Z,16.70
2019-02-05T14:24:14.375Z,21.40
2019-02-05T14:26:44.045Z,18.33
2019-02-05T14:29:13.709Z,18.33
2019-02-05T14:31:43.358Z,17.77
2019-02-05T14:34:13.308Z,19.07
2019-02-05T14:36:42.953Z,17.15
2019-02-05T14:39:12.710Z,21.52
2019-02-05T14:41:42.369Z,18.53
2019-02-05T14:44:12.035Z,16.83
2019-02-05T14:46:41.691Z,19.43
2019-02-05T14:49:11.640Z,20.15
2019-02-05T14:51:41.640Z,17.93
2019-02-05T14:54:11.309Z,18.37
2019-02-05T14:56:41.208Z,19.42
2019-02-05T14:59:11.046Z,21.23
2019-02-05T15:01:43.273Z,18.52
2019-02-05T15:04:12.062Z,20.10
2019-02-05T15:06:42.020Z,17.07
2019-02-05T15:09:13.042Z,18.70
2019-02-05T15:11:42.692Z,21.90
2019-02-05T15:14:12.747Z,18.77
2019-02-05T15:16:42.852Z,19.35
2019-02-05T15:19:12.509Z,17.45
2019-02-05T15:21:42.528Z,21.07
2019-02-05T15:24:12.189Z,18.03
2019-02-05T15:26:41.941Z,19.98
2019-02-05T15:29:11.582Z,20.93
2019-02-05T15:31:41.248Z,20.63
2019-02-05T15:34:18.279Z,22.07
2019-02-05T15:36:50.100Z,21.12
2019-02-05T15:39:19.852Z,18.73
2019-02-05T15:41:49.586Z,21.37
2019-02-05T15:44:19.481Z,20.37
2019-02-05T15:46:49.182Z,18.57
2019-02-05T15:49:18.915Z,20.30
2019-02-05T15:51:48.577Z,24.50
2019-02-05T15:54:18.383Z,19.47
2019-02-05T15:56:48.398Z,18.87
2019-02-05T15:59:18.294Z,19.70
2019-02-05T16:01:48.034Z,18.10
2019-02-05T16:04:17.692Z,20.20
2019-02-05T16:06:47.464Z,18.27
2019-02-05T16:09:17.095Z,21.20
2019-02-05T16:11:47.044Z,20.80
2019-02-05T16:14:16.701Z,19.10
2019-02-05T16:16:46.488Z,19.67
2019-02-05T16:19:16.137Z,21.07
2019-02-05T16:21:46.626Z,18.10
2019-02-05T16:24:16.618Z,23.40
2019-02-05T16:26:46.664Z,18.48
2019-02-05T16:29:16.310Z,23.43
2019-02-05T16:31:45.972Z,20.57
2019-02-05T16:34:15.649Z,20.88
2019-02-05T16:36:48.439Z,21.60
2019-02-05T16:39:16.747Z,22.52
2019-02-05T16:41:46.598Z,21.07
2019-02-05T16:44:16.263Z,23.45
2019-02-05T16:46:46.042Z,20.30
2019-02-05T16:49:15.713Z,19.33
2019-02-05T16:51:45.447Z,19.52
2019-02-05T16:54:15.097Z,21.73
2019-02-05T16:56:45.070Z,21.60
2019-02-05T16:59:14.727Z,22.67
2019-02-05T17:01:45.199Z,23.87
2019-02-05T17:04:14.862Z,22.40
2019-02-05T17:06:44.617Z,22.40
2019-02-05T17:09:16.203Z,26.17
2019-02-05T17:11:46.880Z,21.77
2019-02-05T17:14:16.918Z,25.70
2019-02-05T17:16:46.588Z,22.73
2019-02-05T17:19:16.547Z,21.35
2019-02-05T17:21:48.004Z,25.30
2019-02-05T17:24:17.962Z,23.60
2019-02-05T17:26:47.697Z,21.30
2019-02-05T17:29:17.617Z,23.57
2019-02-05T17:31:48.573Z,24.75
2019-02-05T17:34:18.237Z,23.83
2019-02-05T17:36:47.997Z,21.75
2019-02-05T17:39:17.657Z,21.83
2019-02-05T17:41:48.217Z,26.10
2019-02-05T17:44:17.883Z,23.13
2019-02-05T17:46:47.751Z,21.73
2019-02-05T17:49:18.777Z,21.77
2019-02-05T17:51:48.448Z,24.67
2019-02-05T17:54:18.124Z,21.70
2019-02-05T17:56:48.111Z,22.85
2019-02-05T17:59:18.140Z,20.80
2019-02-05T18:01:48.783Z,19.73
2019-02-05T18:04:18.443Z,20.73
2019-02-05T18:06:48.747Z,23.20
2019-02-05T18:09:18.406Z,20.83
2019-02-05T18:11:48.085Z,24.32
2019-02-05T18:14:17.989Z,22.70
2019-02-05T18:16:47.659Z,19.80
2019-02-05T18:19:17.638Z,23.22
2019-02-05T18:21:47.857Z,22.00
2019-02-05T18:24:18.176Z,23.32
2019-02-05T18:26:48.190Z,21.02
2019-02-05T18:29:18.317Z,28.15
2019-02-05T18:31:49.098Z,24.55
2019-02-05T18:34:18.782Z,27.30
2019-02-05T18:36:48.459Z,22.95
2019-02-05T18:39:18.207Z,22.53
2019-02-05T18:41:48.125Z,27.27
2019-02-05T18:44:17.864Z,24.53
2019-02-05T18:46:47.540Z,24.40
2019-02-05T18:49:17.732Z,24.92
2019-02-05T18:51:47.541Z,27.53
2019-02-05T18:54:17.206Z,27.80
2019-02-05T18:56:47.161Z,21.67
2019-02-05T18:59:17.158Z,20.73
2019-02-05T19:01:47.247Z,22.93
2019-02-05T19:04:17.431Z,23.63
2019-02-05T19:06:47.104Z,25.30
2019-02-05T19:09:16.809Z,24.87
2019-02-05T19:11:46.478Z,28.92
2019-02-05T19:14:16.146Z,26.23
2019-02-05T19:16:45.848Z,23.67
2019-02-05T19:19:15.784Z,27.33
2019-02-05T19:21:45.460Z,25.70
2019-02-05T19:24:31.183Z,27.33
2019-02-05T19:27:00.853Z,25.27
2019-02-05T19:29:31.486Z,26.30
2019-02-05T19:32:01.209Z,24.00
2019-02-05T19:34:30.880Z,24.63
2019-02-05T19:37:02.461Z,24.13
2019-02-05T19:39:32.115Z,24.53
2019-02-05T19:42:01.804Z,25.77
2019-02-05T19:44:31.835Z,24.67
2019-02-05T19:47:07.134Z,24.72
2019-02-05T19:49:38.533Z,26.17
2019-02-05T19:52:08.604Z,24.70
2019-02-05T19:54:38.252Z,24.77
2019-02-05T19:57:08.265Z,23.90
2019-02-05T19:59:38.219Z,24.80
2019-02-05T20:02:09.068Z,26.53
2019-02-05T20:04:38.735Z,26.33
2019-02-05T20:07:08.554Z,26.67
2019-02-05T20:09:39.219Z,24.73
2019-02-05T20:12:09.338Z,23.20
2019-02-05T20:14:39.348Z,21.85
2019-02-05T20:17:09.258Z,26.80
2019-02-05T20:19:39.033Z,23.57
2019-02-05T20:22:08.778Z,27.43
2019-02-05T20:24:38.807Z,25.85
2019-02-05T20:27:08.462Z,27.17
2019-02-05T20:29:38.131Z,25.50
2019-02-05T20:32:08.454Z,24.73
2019-02-05T20:34:38.140Z,25.27
2019-02-05T20:37:07.804Z,23.90
2019-02-05T20:39:37.811Z,23.77
2019-02-05T20:42:07.568Z,22.23
2019-02-05T20:44:37.238Z,25.82
2019-02-05T20:47:07.331Z,23.70
2019-02-05T20:49:37.009Z,24.93
2019-02-05T20:52:07.128Z,24.37
2019-02-05T20:54:36.812Z,24.23
2019-02-05T20:57:06.552Z,22.05
2019-02-05T20:59:36.224Z,24.03
2019-02-05T21:02:06.273Z,22.50
2019-02-05T21:04:46.609Z,26.60
2019-02-05T21:07:08.457Z,24.57
2019-02-05T21:09:38.128Z,24.97
2019-02-05T21:12:08.064Z,26.10
2019-02-05T21:14:37.735Z,23.45
2019-02-05T21:17:07.393Z,21.48
2019-02-05T21:19:37.109Z,26.53
2019-02-05T21:22:08.969Z,27.57
2019-02-05T21:24:38.821Z,24.23
2019-02-05T21:27:08.722Z,24.03
2019-02-05T21:29:38.386Z,27.27
2019-02-05T21:32:08.054Z,25.33
2019-02-05T21:34:37.791Z,25.80
2019-02-05T21:37:07.725Z,25.37
2019-02-05T21:39:37.733Z,24.37
2019-02-05T21:42:07.720Z,23.67
2019-02-05T21:44:37.463Z,25.37
2019-02-05T21:47:07.438Z,22.57
2019-02-05T21:49:37.191Z,24.77
2019-02-05T21:52:06.859Z,25.03
2019-02-05T21:54:36.526Z,25.20
2019-02-05T21:57:06.333Z,25.73
2019-02-05T21:59:36.325Z,26.17
2019-02-05T22:02:07.400Z,25.27
2019-02-05T22:04:37.478Z,23.30
2019-02-05T22:07:26.376Z,26.23
2019-02-05T22:09:56.070Z,26.10
2019-02-05T22:12:25.724Z,25.43
2019-02-05T22:14:55.652Z,22.47
2019-02-05T22:17:25.584Z,24.70
2019-02-05T22:19:55.256Z,23.03
2019-02-05T22:22:25.337Z,25.43
2019-02-05T22:24:55.007Z,24.17
2019-02-05T22:27:24.673Z,25.93
2019-02-05T22:29:54.672Z,25.75
2019-02-05T22:32:24.977Z,26.25
2019-02-05T22:34:54.641Z,24.63
2019-02-05T22:37:24.418Z,23.87
2019-02-05T22:39:54.090Z,27.42
2019-02-05T22:42:23.842Z,22.50
2019-02-05T22:44:53.843Z,23.53
2019-02-05T22:47:23.504Z,27.60
2019-02-05T22:49:53.293Z,24.82
2019-02-05T22:52:25.856Z,21.83
2019-02-05T22:54:54.347Z,26.75
2019-02-05T22:57:24.009Z,26.07
2019-02-05T22:59:53.682Z,23.55
2019-02-05T23:02:24.037Z,27.97
2019-02-05T23:05:20.468Z,28.10
2019-02-05T23:07:50.316Z,24.83
2019-02-05T23:10:28.281Z,25.80
2019-02-05T23:13:01.081Z,24.70
2019-02-05T23:15:31.405Z,23.62
2019-02-05T23:18:01.740Z,29.30
2019-02-05T23:20:31.691Z,23.85
2019-02-05T23:23:01.458Z,25.00
2019-02-05T23:25:31.499Z,26.80
2019-02-05T23:28:01.492Z,28.47
2019-02-05T23:30:31.537Z,28.83
2019-02-05T23:33:01.186Z,25.50
2019-02-05T23:35:32.676Z,28.27
2019-02-05T23:38:02.571Z,26.53
2019-02-05T23:40:32.507Z,25.30
2019-02-05T23:43:02.203Z,26.17
2019-02-05T23:45:33.033Z,28.15
2019-02-05T23:48:02.803Z,27.32
2019-02-05T23:50:32.475Z,29.53
2019-02-05T23:53:02.127Z,28.42
2019-02-05T23:55:31.809Z,24.27
2019-02-05T23:58:01.495Z,26.97
